sensor_id;sensor_type;location;lat;lon;timestamp;P1;durP1;ratioP1;P2;durP2;ratioP2
74551;SDS011;63025;55.472;38.432;2023-11-21T00:00:31;13.05;;;5.90;;
74551;SDS011;63025;55.472;38.432;2023-11-21T00:02:57;11.77;;;6.25;;
74551;SDS011;63025;55.472;38.432;2023-11-21T00:05:23;12.57;;;6.35;;
74551;SDS011;63025;55.472;38.432;2023-11-21T00:07:49;15.25;;;6.38;;
74551;SDS011;63025;55.472;38.432;2023-11-21T00:10:15;12.93;;;6.38;;
74551;SDS011;63025;55.472;38.432;2023-11-21T00:12:41;13.52;;;6.40;;
74551;SDS011;63025;55.472;38.432;2023-11-21T00:15:08;16.00;;;6.60;;
74551;SDS011;63025;55.472;38.432;2023-11-21T00:17:37;13.13;;;6.45;;
74551;SDS011;63025;55.472;38.432;2023-11-21T00:20:05;12.93;;;6.10;;
74551;SDS011;63025;55.472;38.432;2023-11-21T00:22:33;13.00;;;6.40;;
74551;SDS011;63025;55.472;38.432;2023-11-21T00:25:02;12.90;;;6.53;;
74551;SDS011;63025;55.472;38.432;2023-11-21T00:27:31;14.57;;;6.47;;
74551;SDS011;63025;55.472;38.432;2023-11-21T00:29:57;13.43;;;6.53;;
74551;SDS011;63025;55.472;38.432;2023-11-21T00:32:23;12.95;;;6.53;;
74551;SDS011;63025;55.472;38.432;2023-11-21T00:34:49;13.65;;;6.57;;
74551;SDS011;63025;55.472;38.432;2023-11-21T00:37:15;13.38;;;7.28;;
74551;SDS011;63025;55.472;38.432;2023-11-21T00:39:41;13.93;;;6.53;;
74551;SDS011;63025;55.472;38.432;2023-11-21T00:42:07;15.00;;;6.80;;
74551;SDS011;63025;55.472;38.432;2023-11-21T00:44:34;13.23;;;7.40;;
74551;SDS011;63025;55.472;38.432;2023-11-21T00:47:03;12.10;;;6.30;;
74551;SDS011;63025;55.472;38.432;2023-11-21T00:49:29;12.23;;;6.22;;
74551;SDS011;63025;55.472;38.432;2023-11-21T00:51:55;13.18;;;5.85;;
74551;SDS011;63025;55.472;38.432;2023-11-21T00:54:20;12.95;;;6.80;;
74551;SDS011;63025;55.472;38.432;2023-11-21T00:56:46;12.75;;;6.43;;
74551;SDS011;63025;55.472;38.432;2023-11-21T00:59:13;11.38;;;6.22;;
74551;SDS011;63025;55.472;38.432;2023-11-21T01:01:40;12.48;;;6.22;;
74551;SDS011;63025;55.472;38.432;2023-11-21T01:04:06;13.35;;;6.22;;
74551;SDS011;63025;55.472;38.432;2023-11-21T01:06:33;11.65;;;5.65;;
74551;SDS011;63025;55.472;38.432;2023-11-21T01:08:59;11.77;;;5.63;;
74551;SDS011;63025;55.472;38.432;2023-11-21T01:11:25;13.25;;;5.65;;
74551;SDS011;63025;55.472;38.432;2023-11-21T01:13:51;11.32;;;5.28;;
74551;SDS011;63025;55.472;38.432;2023-11-21T01:16:18;13.63;;;7.25;;
74551;SDS011;63025;55.472;38.432;2023-11-21T01:18:44;12.65;;;5.38;;
74551;SDS011;63025;55.472;38.432;2023-11-21T01:21:12;14.98;;;6.40;;
74551;SDS011;63025;55.472;38.432;2023-11-21T01:23:37;12.40;;;5.78;;
74551;SDS011;63025;55.472;38.432;2023-11-21T01:26:03;10.52;;;5.43;;
74551;SDS011;63025;55.472;38.432;2023-11-21T01:28:29;12.38;;;6.60;;
74551;SDS011;63025;55.472;38.432;2023-11-21T01:30:57;12.48;;;5.80;;
74551;SDS011;63025;55.472;38.432;2023-11-21T01:33:23;13.15;;;6.78;;
74551;SDS011;63025;55.472;38.432;2023-11-21T01:35:51;12.02;;;6.07;;
74551;SDS011;63025;55.472;38.432;2023-11-21T01:38:20;9.35;;;5.40;;
74551;SDS011;63025;55.472;38.432;2023-11-21T01:40:47;10.80;;;5.80;;
74551;SDS011;63025;55.472;38.432;2023-11-21T01:43:14;10.02;;;5.43;;
74551;SDS011;63025;55.472;38.432;2023-11-21T01:45:40;10.63;;;5.47;;
74551;SDS011;63025;55.472;38.432;2023-11-21T01:48:06;13.15;;;5.50;;
74551;SDS011;63025;55.472;38.432;2023-11-21T01:50:32;10.90;;;5.18;;
74551;SDS011;63025;55.472;38.432;2023-11-21T01:52:59;15.25;;;5.80;;
74551;SDS011;63025;55.472;38.432;2023-11-21T01:55:25;10.65;;;5.47;;
74551;SDS011;63025;55.472;38.432;2023-11-21T01:57:53;11.63;;;5.57;;
74551;SDS011;63025;55.472;38.432;2023-11-21T02:00:21;11.18;;;5.75;;
74551;SDS011;63025;55.472;38.432;2023-11-21T02:02:47;13.40;;;5.70;;
74551;SDS011;63025;55.472;38.432;2023-11-21T02:05:14;10.95;;;5.47;;
74551;SDS011;63025;55.472;38.432;2023-11-21T02:07:42;12.05;;;5.72;;
74551;SDS011;63025;55.472;38.432;2023-11-21T02:10:09;12.20;;;5.63;;
74551;SDS011;63025;55.472;38.432;2023-11-21T02:12:37;11.98;;;5.25;;
74551;SDS011;63025;55.472;38.432;2023-11-21T02:15:06;11.40;;;5.85;;
74551;SDS011;63025;55.472;38.432;2023-11-21T02:17:42;12.07;;;5.47;;
74551;SDS011;63025;55.472;38.432;2023-11-21T02:20:11;12.40;;;5.78;;
74551;SDS011;63025;55.472;38.432;2023-11-21T02:22:42;12.27;;;6.30;;
74551;SDS011;63025;55.472;38.432;2023-11-21T02:25:28;15.70;;;5.60;;
74551;SDS011;63025;55.472;38.432;2023-11-21T02:27:56;11.65;;;5.65;;
74551;SDS011;63025;55.472;38.432;2023-11-21T02:30:23;12.02;;;5.65;;
74551;SDS011;63025;55.472;38.432;2023-11-21T02:32:59;12.95;;;5.95;;
74551;SDS011;63025;55.472;38.432;2023-11-21T02:35:26;14.48;;;6.40;;
74551;SDS011;63025;55.472;38.432;2023-11-21T02:37:52;11.65;;;5.63;;
74551;SDS011;63025;55.472;38.432;2023-11-21T02:40:19;12.10;;;6.03;;
74551;SDS011;63025;55.472;38.432;2023-11-21T02:42:50;14.65;;;6.10;;
74551;SDS011;63025;55.472;38.432;2023-11-21T02:45:17;15.02;;;6.15;;
74551;SDS011;63025;55.472;38.432;2023-11-21T02:47:44;15.15;;;6.30;;
74551;SDS011;63025;55.472;38.432;2023-11-21T02:50:11;15.52;;;6.70;;
74551;SDS011;63025;55.472;38.432;2023-11-21T02:52:37;13.35;;;5.72;;
74551;SDS011;63025;55.472;38.432;2023-11-21T02:55:06;14.23;;;5.97;;
74551;SDS011;63025;55.472;38.432;2023-11-21T02:57:35;13.20;;;6.07;;
74551;SDS011;63025;55.472;38.432;2023-11-21T03:00:01;11.52;;;5.72;;
74551;SDS011;63025;55.472;38.432;2023-11-21T03:02:31;12.25;;;5.80;;
74551;SDS011;63025;55.472;38.432;2023-11-21T03:04:57;9.80;;;5.43;;
74551;SDS011;63025;55.472;38.432;2023-11-21T03:07:23;16.58;;;6.60;;
74551;SDS011;63025;55.472;38.432;2023-11-21T03:09:51;11.68;;;5.97;;
74551;SDS011;63025;55.472;38.432;2023-11-21T03:12:17;15.75;;;6.38;;
74551;SDS011;63025;55.472;38.432;2023-11-21T03:14:43;13.23;;;5.78;;
74551;SDS011;63025;55.472;38.432;2023-11-21T03:17:09;12.75;;;5.93;;
74551;SDS011;63025;55.472;38.432;2023-11-21T03:19:34;11.10;;;5.70;;
74551;SDS011;63025;55.472;38.432;2023-11-21T03:22:00;13.05;;;5.80;;
74551;SDS011;63025;55.472;38.432;2023-11-21T03:24:26;13.80;;;6.28;;
74551;SDS011;63025;55.472;38.432;2023-11-21T03:26:52;9.48;;;5.15;;
74551;SDS011;63025;55.472;38.432;2023-11-21T03:29:18;11.38;;;5.90;;
74551;SDS011;63025;55.472;38.432;2023-11-21T03:31:45;13.43;;;5.82;;
74551;SDS011;63025;55.472;38.432;2023-11-21T03:34:15;13.82;;;5.82;;
74551;SDS011;63025;55.472;38.432;2023-11-21T03:36:42;10.57;;;5.30;;
74551;SDS011;63025;55.472;38.432;2023-11-21T03:39:08;12.52;;;5.68;;
74551;SDS011;63025;55.472;38.432;2023-11-21T03:41:34;12.82;;;6.13;;
74551;SDS011;63025;55.472;38.432;2023-11-21T03:44:00;7.88;;;4.13;;
74551;SDS011;63025;55.472;38.432;2023-11-21T03:46:26;10.68;;;5.03;;
74551;SDS011;63025;55.472;38.432;2023-11-21T03:48:52;13.15;;;5.85;;
74551;SDS011;63025;55.472;38.432;2023-11-21T03:51:18;11.82;;;5.07;;
74551;SDS011;63025;55.472;38.432;2023-11-21T03:53:43;9.98;;;5.78;;
74551;SDS011;63025;55.472;38.432;2023-11-21T03:56:09;10.68;;;5.47;;
74551;SDS011;63025;55.472;38.432;2023-11-21T03:58:35;12.85;;;5.30;;
74551;SDS011;63025;55.472;38.432;2023-11-21T04:01:01;12.73;;;5.18;;
74551;SDS011;63025;55.472;38.432;2023-11-21T04:03:27;9.90;;;4.90;;
74551;SDS011;63025;55.472;38.432;2023-11-21T04:05:53;9.65;;;4.97;;
74551;SDS011;63025;55.472;38.432;2023-11-21T04:08:19;10.70;;;4.68;;
74551;SDS011;63025;55.472;38.432;2023-11-21T04:10:45;10.40;;;5.13;;
74551;SDS011;63025;55.472;38.432;2023-11-21T04:13:10;10.30;;;4.75;;
74551;SDS011;63025;55.472;38.432;2023-11-21T04:15:37;12.20;;;5.45;;
74551;SDS011;63025;55.472;38.432;2023-11-21T04:18:02;10.77;;;5.82;;
74551;SDS011;63025;55.472;38.432;2023-11-21T04:20:28;11.98;;;5.32;;
74551;SDS011;63025;55.472;38.432;2023-11-21T04:22:54;9.80;;;4.57;;
74551;SDS011;63025;55.472;38.432;2023-11-21T04:25:20;10.48;;;5.43;;
74551;SDS011;63025;55.472;38.432;2023-11-21T04:27:48;10.40;;;4.97;;
74551;SDS011;63025;55.472;38.432;2023-11-21T04:30:14;11.18;;;4.80;;
74551;SDS011;63025;55.472;38.432;2023-11-21T04:32:40;10.68;;;4.88;;
74551;SDS011;63025;55.472;38.432;2023-11-21T04:35:08;9.18;;;4.45;;
74551;SDS011;63025;55.472;38.432;2023-11-21T04:37:34;10.07;;;4.82;;
74551;SDS011;63025;55.472;38.432;2023-11-21T04:40:01;10.38;;;4.68;;
74551;SDS011;63025;55.472;38.432;2023-11-21T04:42:30;10.80;;;4.97;;
74551;SDS011;63025;55.472;38.432;2023-11-21T04:44:55;11.75;;;5.38;;
74551;SDS011;63025;55.472;38.432;2023-11-21T04:47:21;10.15;;;5.35;;
74551;SDS011;63025;55.472;38.432;2023-11-21T04:49:47;10.25;;;4.90;;
74551;SDS011;63025;55.472;38.432;2023-11-21T04:52:13;12.02;;;5.80;;
74551;SDS011;63025;55.472;38.432;2023-11-21T04:54:39;12.25;;;5.50;;
74551;SDS011;63025;55.472;38.432;2023-11-21T04:57:05;9.23;;;5.00;;
74551;SDS011;63025;55.472;38.432;2023-11-21T04:59:33;11.35;;;5.15;;
74551;SDS011;63025;55.472;38.432;2023-11-21T05:02:00;9.35;;;5.00;;
74551;SDS011;63025;55.472;38.432;2023-11-21T05:04:26;9.73;;;5.20;;
74551;SDS011;63025;55.472;38.432;2023-11-21T05:06:53;8.93;;;5.07;;
74551;SDS011;63025;55.472;38.432;2023-11-21T05:09:19;12.10;;;5.10;;
74551;SDS011;63025;55.472;38.432;2023-11-21T05:11:45;10.85;;;4.68;;
74551;SDS011;63025;55.472;38.432;2023-11-21T05:14:12;11.90;;;5.43;;
74551;SDS011;63025;55.472;38.432;2023-11-21T05:16:39;10.88;;;4.97;;
74551;SDS011;63025;55.472;38.432;2023-11-21T05:19:04;9.32;;;5.25;;
74551;SDS011;63025;55.472;38.432;2023-11-21T05:21:32;11.25;;;4.88;;
74551;SDS011;63025;55.472;38.432;2023-11-21T05:23:59;10.40;;;6.00;;
74551;SDS011;63025;55.472;38.432;2023-11-21T05:26:25;10.95;;;5.57;;
74551;SDS011;63025;55.472;38.432;2023-11-21T05:28:51;9.52;;;5.25;;
74551;SDS011;63025;55.472;38.432;2023-11-21T05:31:17;9.68;;;5.13;;
74551;SDS011;63025;55.472;38.432;2023-11-21T05:33:43;9.35;;;4.57;;
74551;SDS011;63025;55.472;38.432;2023-11-21T05:36:08;11.15;;;4.95;;
74551;SDS011;63025;55.472;38.432;2023-11-21T05:38:35;10.77;;;4.90;;
74551;SDS011;63025;55.472;38.432;2023-11-21T05:41:02;9.82;;;4.82;;
74551;SDS011;63025;55.472;38.432;2023-11-21T05:43:30;12.23;;;5.57;;
74551;SDS011;63025;55.472;38.432;2023-11-21T05:45:59;9.20;;;4.55;;
74551;SDS011;63025;55.472;38.432;2023-11-21T05:48:25;10.48;;;5.07;;
74551;SDS011;63025;55.472;38.432;2023-11-21T05:50:52;12.40;;;5.20;;
74551;SDS011;63025;55.472;38.432;2023-11-21T05:53:19;10.52;;;4.75;;
74551;SDS011;63025;55.472;38.432;2023-11-21T05:55:45;9.35;;;4.70;;
74551;SDS011;63025;55.472;38.432;2023-11-21T05:58:11;8.57;;;4.88;;
74551;SDS011;63025;55.472;38.432;2023-11-21T06:00:39;11.30;;;5.32;;
74551;SDS011;63025;55.472;38.432;2023-11-21T06:03:06;8.98;;;4.50;;
74551;SDS011;63025;55.472;38.432;2023-11-21T06:05:33;9.35;;;4.65;;
74551;SDS011;63025;55.472;38.432;2023-11-21T06:07:59;9.55;;;4.70;;
74551;SDS011;63025;55.472;38.432;2023-11-21T06:10:27;8.73;;;4.15;;
74551;SDS011;63025;55.472;38.432;2023-11-21T06:12:54;10.20;;;4.70;;
74551;SDS011;63025;55.472;38.432;2023-11-21T06:15:20;10.57;;;4.68;;
74551;SDS011;63025;55.472;38.432;2023-11-21T06:17:49;10.80;;;4.97;;
74551;SDS011;63025;55.472;38.432;2023-11-21T06:20:18;11.35;;;4.30;;
74551;SDS011;63025;55.472;38.432;2023-11-21T06:22:46;7.75;;;4.25;;
74551;SDS011;63025;55.472;38.432;2023-11-21T06:25:13;7.43;;;4.32;;
74551;SDS011;63025;55.472;38.432;2023-11-21T06:27:41;9.95;;;4.28;;
74551;SDS011;63025;55.472;38.432;2023-11-21T06:30:08;8.18;;;4.20;;
74551;SDS011;63025;55.472;38.432;2023-11-21T06:32:36;8.55;;;4.20;;
74551;SDS011;63025;55.472;38.432;2023-11-21T06:35:02;7.53;;;3.53;;
74551;SDS011;63025;55.472;38.432;2023-11-21T06:37:30;8.55;;;4.00;;
74551;SDS011;63025;55.472;38.432;2023-11-21T06:39:57;8.45;;;3.95;;
74551;SDS011;63025;55.472;38.432;2023-11-21T06:42:24;9.90;;;4.32;;
74551;SDS011;63025;55.472;38.432;2023-11-21T06:44:51;11.10;;;4.47;;
74551;SDS011;63025;55.472;38.432;2023-11-21T06:47:17;10.13;;;4.50;;
74551;SDS011;63025;55.472;38.432;2023-11-21T06:49:46;9.10;;;4.38;;
74551;SDS011;63025;55.472;38.432;2023-11-21T06:52:15;9.80;;;4.07;;
74551;SDS011;63025;55.472;38.432;2023-11-21T06:54:41;8.82;;;4.55;;
74551;SDS011;63025;55.472;38.432;2023-11-21T06:57:25;12.15;;;4.75;;
74551;SDS011;63025;55.472;38.432;2023-11-21T06:59:52;8.77;;;4.40;;
74551;SDS011;63025;55.472;38.432;2023-11-21T07:02:17;8.48;;;4.07;;
74551;SDS011;63025;55.472;38.432;2023-11-21T07:04:46;9.88;;;4.20;;
74551;SDS011;63025;55.472;38.432;2023-11-21T07:07:12;7.93;;;3.92;;
74551;SDS011;63025;55.472;38.432;2023-11-21T07:09:38;7.72;;;3.90;;
74551;SDS011;63025;55.472;38.432;2023-11-21T07:12:04;7.68;;;3.53;;
74551;SDS011;63025;55.472;38.432;2023-11-21T07:14:36;7.90;;;4.38;;
74551;SDS011;63025;55.472;38.432;2023-11-21T07:17:04;9.90;;;4.10;;
74551;SDS011;63025;55.472;38.432;2023-11-21T07:19:30;9.63;;;3.38;;
74551;SDS011;63025;55.472;38.432;2023-11-21T07:21:56;7.65;;;3.60;;
74551;SDS011;63025;55.472;38.432;2023-11-21T07:24:22;7.70;;;4.10;;
74551;SDS011;63025;55.472;38.432;2023-11-21T07:26:50;8.75;;;4.03;;
74551;SDS011;63025;55.472;38.432;2023-11-21T07:29:16;8.23;;;3.85;;
74551;SDS011;63025;55.472;38.432;2023-11-21T07:31:42;8.90;;;3.90;;
74551;SDS011;63025;55.472;38.432;2023-11-21T07:34:08;8.13;;;3.50;;
74551;SDS011;63025;55.472;38.432;2023-11-21T07:36:34;9.63;;;3.83;;
74551;SDS011;63025;55.472;38.432;2023-11-21T07:39:00;8.57;;;4.20;;
74551;SDS011;63025;55.472;38.432;2023-11-21T07:41:27;7.22;;;3.55;;
74551;SDS011;63025;55.472;38.432;2023-11-21T07:43:55;7.63;;;3.60;;
74551;SDS011;63025;55.472;38.432;2023-11-21T07:46:21;6.93;;;3.63;;
74551;SDS011;63025;55.472;38.432;2023-11-21T07:48:47;7.50;;;3.70;;
74551;SDS011;63025;55.472;38.432;2023-11-21T07:51:13;8.75;;;3.90;;
74551;SDS011;63025;55.472;38.432;2023-11-21T07:53:39;6.93;;;3.80;;
74551;SDS011;63025;55.472;38.432;2023-11-21T07:56:06;7.22;;;3.53;;
74551;SDS011;63025;55.472;38.432;2023-11-21T07:58:37;10.10;;;4.28;;
74551;SDS011;63025;55.472;38.432;2023-11-21T08:01:03;8.75;;;3.90;;
74551;SDS011;63025;55.472;38.432;2023-11-21T08:03:29;6.95;;;3.63;;
74551;SDS011;63025;55.472;38.432;2023-11-21T08:05:56;7.05;;;3.60;;
74551;SDS011;63025;55.472;38.432;2023-11-21T08:08:23;6.55;;;3.63;;
74551;SDS011;63025;55.472;38.432;2023-11-21T08:10:49;8.60;;;4.00;;
74551;SDS011;63025;55.472;38.432;2023-11-21T08:13:25;6.07;;;3.55;;
74551;SDS011;63025;55.472;38.432;2023-11-21T08:15:55;8.75;;;4.20;;
74551;SDS011;63025;55.472;38.432;2023-11-21T08:18:23;9.13;;;3.67;;
74551;SDS011;63025;55.472;38.432;2023-11-21T08:20:50;7.68;;;3.58;;
74551;SDS011;63025;55.472;38.432;2023-11-21T08:23:16;8.43;;;4.35;;
74551;SDS011;63025;55.472;38.432;2023-11-21T08:25:43;7.60;;;3.80;;
74551;SDS011;63025;55.472;38.432;2023-11-21T08:28:09;7.10;;;3.60;;
74551;SDS011;63025;55.472;38.432;2023-11-21T08:30:35;8.02;;;3.55;;
74551;SDS011;63025;55.472;38.432;2023-11-21T08:33:01;7.30;;;3.42;;
74551;SDS011;63025;55.472;38.432;2023-11-21T08:35:28;7.60;;;3.47;;
74551;SDS011;63025;55.472;38.432;2023-11-21T08:37:55;8.13;;;3.30;;
74551;SDS011;63025;55.472;38.432;2023-11-21T08:40:21;6.38;;;3.45;;
74551;SDS011;63025;55.472;38.432;2023-11-21T08:42:47;8.20;;;3.75;;
74551;SDS011;63025;55.472;38.432;2023-11-21T08:45:14;7.22;;;3.58;;
74551;SDS011;63025;55.472;38.432;2023-11-21T08:47:40;7.55;;;3.92;;
74551;SDS011;63025;55.472;38.432;2023-11-21T08:50:06;7.18;;;3.38;;
74551;SDS011;63025;55.472;38.432;2023-11-21T08:52:33;7.38;;;3.63;;
74551;SDS011;63025;55.472;38.432;2023-11-21T08:54:59;7.75;;;4.07;;
74551;SDS011;63025;55.472;38.432;2023-11-21T08:57:36;7.38;;;3.50;;
74551;SDS011;63025;55.472;38.432;2023-11-21T09:00:05;6.80;;;3.45;;
74551;SDS011;63025;55.472;38.432;2023-11-21T09:02:37;6.85;;;3.30;;
74551;SDS011;63025;55.472;38.432;2023-11-21T09:05:05;8.70;;;3.70;;
74551;SDS011;63025;55.472;38.432;2023-11-21T09:07:32;7.93;;;4.00;;
74551;SDS011;63025;55.472;38.432;2023-11-21T09:09:58;8.18;;;3.88;;
74551;SDS011;63025;55.472;38.432;2023-11-21T09:12:24;7.20;;;3.47;;
74551;SDS011;63025;55.472;38.432;2023-11-21T09:14:50;6.85;;;3.40;;
74551;SDS011;63025;55.472;38.432;2023-11-21T09:17:16;6.93;;;3.75;;
74551;SDS011;63025;55.472;38.432;2023-11-21T09:19:43;7.32;;;3.45;;
74551;SDS011;63025;55.472;38.432;2023-11-21T09:22:15;8.13;;;3.60;;
74551;SDS011;63025;55.472;38.432;2023-11-21T09:24:42;9.52;;;3.63;;
74551;SDS011;63025;55.472;38.432;2023-11-21T09:27:08;6.40;;;3.30;;
74551;SDS011;63025;55.472;38.432;2023-11-21T09:29:37;8.32;;;4.32;;
74551;SDS011;63025;55.472;38.432;2023-11-21T09:32:04;6.63;;;3.53;;
74551;SDS011;63025;55.472;38.432;2023-11-21T09:34:34;7.78;;;3.60;;
74551;SDS011;63025;55.472;38.432;2023-11-21T09:37:04;8.10;;;3.90;;
74551;SDS011;63025;55.472;38.432;2023-11-21T09:39:32;6.85;;;3.60;;
74551;SDS011;63025;55.472;38.432;2023-11-21T09:42:06;7.38;;;3.60;;
74551;SDS011;63025;55.472;38.432;2023-11-21T09:47:18;6.85;;;3.25;;
74551;SDS011;63025;55.472;38.432;2023-11-21T09:49:47;9.05;;;3.67;;
74551;SDS011;63025;55.472;38.432;2023-11-21T09:52:17;5.82;;;3.33;;
74551;SDS011;63025;55.472;38.432;2023-11-21T09:54:49;7.00;;;3.60;;
74551;SDS011;63025;55.472;38.432;2023-11-21T09:57:16;6.32;;;3.47;;
74551;SDS011;63025;55.472;38.432;2023-11-21T09:59:44;6.85;;;3.22;;
74551;SDS011;63025;55.472;38.432;2023-11-21T10:02:12;8.45;;;3.63;;
74551;SDS011;63025;55.472;38.432;2023-11-21T10:04:39;7.93;;;3.70;;
74551;SDS011;63025;55.472;38.432;2023-11-21T10:07:05;9.25;;;4.15;;
74551;SDS011;63025;55.472;38.432;2023-11-21T10:09:36;6.85;;;3.60;;
74551;SDS011;63025;55.472;38.432;2023-11-21T10:12:03;5.32;;;3.33;;
74551;SDS011;63025;55.472;38.432;2023-11-21T10:14:34;8.52;;;3.58;;
74551;SDS011;63025;55.472;38.432;2023-11-21T10:17:06;7.17;;;3.97;;
74551;SDS011;63025;55.472;38.432;2023-11-21T10:19:35;7.00;;;3.63;;
74551;SDS011;63025;55.472;38.432;2023-11-21T10:22:02;8.13;;;3.88;;
74551;SDS011;63025;55.472;38.432;2023-11-21T10:24:29;6.88;;;3.75;;
74551;SDS011;63025;55.472;38.432;2023-11-21T10:26:55;7.63;;;3.83;;
74551;SDS011;63025;55.472;38.432;2023-11-21T10:29:21;8.60;;;4.10;;
74551;SDS011;63025;55.472;38.432;2023-11-21T10:31:49;8.07;;;3.92;;
74551;SDS011;63025;55.472;38.432;2023-11-21T10:34:16;9.93;;;4.50;;
74551;SDS011;63025;55.472;38.432;2023-11-21T10:36:44;9.90;;;4.40;;
74551;SDS011;63025;55.472;38.432;2023-11-21T10:39:14;11.02;;;4.38;;
74551;SDS011;63025;55.472;38.432;2023-11-21T10:41:45;10.05;;;4.90;;
74551;SDS011;63025;55.472;38.432;2023-11-21T10:44:16;8.90;;;4.35;;
74551;SDS011;63025;55.472;38.432;2023-11-21T10:46:47;8.77;;;4.50;;
74551;SDS011;63025;55.472;38.432;2023-11-21T10:49:17;10.77;;;4.80;;
74551;SDS011;63025;55.472;38.432;2023-11-21T10:51:44;9.93;;;5.07;;
74551;SDS011;63025;55.472;38.432;2023-11-21T10:54:11;11.27;;;4.57;;
74551;SDS011;63025;55.472;38.432;2023-11-21T10:56:38;10.75;;;5.40;;
74551;SDS011;63025;55.472;38.432;2023-11-21T10:59:09;9.15;;;4.70;;
74551;SDS011;63025;55.472;38.432;2023-11-21T11:01:42;6.90;;;4.20;;
74551;SDS011;63025;55.472;38.432;2023-11-21T11:04:11;7.50;;;4.25;;
74551;SDS011;63025;55.472;38.432;2023-11-21T11:06:44;10.10;;;4.22;;
74551;SDS011;63025;55.472;38.432;2023-11-21T11:09:16;9.02;;;4.25;;
74551;SDS011;63025;55.472;38.432;2023-11-21T11:11:43;8.75;;;4.20;;
74551;SDS011;63025;55.472;38.432;2023-11-21T11:14:13;7.85;;;4.03;;
74551;SDS011;63025;55.472;38.432;2023-11-21T11:16:40;8.90;;;3.67;;
74551;SDS011;63025;55.472;38.432;2023-11-21T11:19:09;8.05;;;4.20;;
74551;SDS011;63025;55.472;38.432;2023-11-21T11:29:10;8.65;;;3.90;;
74551;SDS011;63025;55.472;38.432;2023-11-21T11:32:01;9.30;;;4.15;;
74551;SDS011;63025;55.472;38.432;2023-11-21T11:37:30;9.90;;;4.32;;
74551;SDS011;63025;55.472;38.432;2023-11-21T11:39:56;9.55;;;4.32;;
74551;SDS011;63025;55.472;38.432;2023-11-21T11:42:22;6.95;;;4.18;;
74551;SDS011;63025;55.472;38.432;2023-11-21T11:44:49;10.18;;;5.28;;
74551;SDS011;63025;55.472;38.432;2023-11-21T11:47:21;7.53;;;4.40;;
74551;SDS011;63025;55.472;38.432;2023-11-21T11:55:06;9.93;;;4.80;;
74551;SDS011;63025;55.472;38.432;2023-11-21T11:57:35;8.65;;;4.60;;
74551;SDS011;63025;55.472;38.432;2023-11-21T12:02:47;8.45;;;4.38;;
74551;SDS011;63025;55.472;38.432;2023-11-21T12:05:14;9.05;;;4.40;;
74551;SDS011;63025;55.472;38.432;2023-11-21T12:07:54;8.05;;;4.63;;
74551;SDS011;63025;55.472;38.432;2023-11-21T12:13:05;9.45;;;4.85;;
74551;SDS011;63025;55.472;38.432;2023-11-21T12:15:36;10.02;;;4.72;;
74551;SDS011;63025;55.472;38.432;2023-11-21T12:18:02;8.40;;;4.50;;
74551;SDS011;63025;55.472;38.432;2023-11-21T12:20:29;7.78;;;4.57;;
74551;SDS011;63025;55.472;38.432;2023-11-21T12:22:57;10.82;;;4.97;;
74551;SDS011;63025;55.472;38.432;2023-11-21T12:25:25;9.00;;;4.70;;
74551;SDS011;63025;55.472;38.432;2023-11-21T12:27:54;9.27;;;4.40;;
74551;SDS011;63025;55.472;38.432;2023-11-21T12:30:23;9.50;;;4.78;;
74551;SDS011;63025;55.472;38.432;2023-11-21T12:32:51;9.93;;;4.53;;
74551;SDS011;63025;55.472;38.432;2023-11-21T12:35:19;9.05;;;4.60;;
74551;SDS011;63025;55.472;38.432;2023-11-21T12:37:49;8.85;;;4.72;;
74551;SDS011;63025;55.472;38.432;2023-11-21T12:40:17;8.38;;;4.72;;
74551;SDS011;63025;55.472;38.432;2023-11-21T12:42:45;9.98;;;4.65;;
74551;SDS011;63025;55.472;38.432;2023-11-21T12:47:44;9.80;;;5.03;;
74551;SDS011;63025;55.472;38.432;2023-11-21T12:50:19;10.73;;;5.22;;
74551;SDS011;63025;55.472;38.432;2023-11-21T12:52:49;9.10;;;4.38;;
74551;SDS011;63025;55.472;38.432;2023-11-21T12:55:20;10.70;;;4.30;;
74551;SDS011;63025;55.472;38.432;2023-11-21T12:57:51;10.07;;;5.00;;
74551;SDS011;63025;55.472;38.432;2023-11-21T13:00:20;9.27;;;4.50;;
74551;SDS011;63025;55.472;38.432;2023-11-21T13:02:54;11.52;;;5.38;;
74551;SDS011;63025;55.472;38.432;2023-11-21T13:05:24;9.15;;;4.70;;
74551;SDS011;63025;55.472;38.432;2023-11-21T13:08:00;9.52;;;4.40;;
74551;SDS011;63025;55.472;38.432;2023-11-21T13:10:33;8.85;;;5.53;;
74551;SDS011;63025;55.472;38.432;2023-11-21T13:13:02;9.15;;;4.35;;
74551;SDS011;63025;55.472;38.432;2023-11-21T13:15:31;10.40;;;5.18;;
74551;SDS011;63025;55.472;38.432;2023-11-21T13:17:58;22.63;;;4.85;;
74551;SDS011;63025;55.472;38.432;2023-11-21T13:20:24;11.43;;;5.55;;
74551;SDS011;63025;55.472;38.432;2023-11-21T13:22:51;10.90;;;5.20;;
74551;SDS011;63025;55.472;38.432;2023-11-21T13:25:27;10.02;;;4.68;;
74551;SDS011;63025;55.472;38.432;2023-11-21T13:27:57;9.45;;;5.28;;
74551;SDS011;63025;55.472;38.432;2023-11-21T13:30:27;9.10;;;4.85;;
74551;SDS011;63025;55.472;38.432;2023-11-21T13:32:59;11.13;;;5.17;;
74551;SDS011;63025;55.472;38.432;2023-11-21T13:35:34;10.95;;;5.30;;
74551;SDS011;63025;55.472;38.432;2023-11-21T13:38:21;8.65;;;4.50;;
74551;SDS011;63025;55.472;38.432;2023-11-21T13:40:51;10.55;;;5.30;;
74551;SDS011;63025;55.472;38.432;2023-11-21T13:43:20;10.48;;;5.38;;
74551;SDS011;63025;55.472;38.432;2023-11-21T13:45:50;10.05;;;4.82;;
74551;SDS011;63025;55.472;38.432;2023-11-21T13:51:12;9.75;;;5.20;;
74551;SDS011;63025;55.472;38.432;2023-11-21T13:53:43;9.88;;;5.13;;
74551;SDS011;63025;55.472;38.432;2023-11-21T13:56:13;8.82;;;5.30;;
74551;SDS011;63025;55.472;38.432;2023-11-21T13:58:45;13.30;;;5.45;;
74551;SDS011;63025;55.472;38.432;2023-11-21T14:01:18;11.55;;;5.93;;
74551;SDS011;63025;55.472;38.432;2023-11-21T14:04:01;11.70;;;5.28;;
74551;SDS011;63025;55.472;38.432;2023-11-21T14:06:38;10.95;;;5.50;;
74551;SDS011;63025;55.472;38.432;2023-11-21T14:09:14;13.75;;;5.60;;
74551;SDS011;63025;55.472;38.432;2023-11-21T14:11:51;11.50;;;5.25;;
74551;SDS011;63025;55.472;38.432;2023-11-21T14:14:19;8.07;;;4.93;;
74551;SDS011;63025;55.472;38.432;2023-11-21T14:16:46;10.25;;;4.95;;
74551;SDS011;63025;55.472;38.432;2023-11-21T14:19:13;10.40;;;5.35;;
74551;SDS011;63025;55.472;38.432;2023-11-21T14:21:43;12.82;;;5.22;;
74551;SDS011;63025;55.472;38.432;2023-11-21T14:24:10;11.50;;;5.40;;
74551;SDS011;63025;55.472;38.432;2023-11-21T14:26:39;9.52;;;4.93;;
74551;SDS011;63025;55.472;38.432;2023-11-21T14:29:06;10.30;;;5.13;;
74551;SDS011;63025;55.472;38.432;2023-11-21T14:31:34;10.57;;;5.22;;
74551;SDS011;63025;55.472;38.432;2023-11-21T14:34:00;14.75;;;6.43;;
74551;SDS011;63025;55.472;38.432;2023-11-21T14:36:31;12.13;;;6.10;;
74551;SDS011;63025;55.472;38.432;2023-11-21T14:38:57;12.68;;;6.05;;
74551;SDS011;63025;55.472;38.432;2023-11-21T14:41:23;14.35;;;6.55;;
74551;SDS011;63025;55.472;38.432;2023-11-21T14:43:50;14.07;;;6.10;;
74551;SDS011;63025;55.472;38.432;2023-11-21T14:46:16;11.15;;;5.43;;
74551;SDS011;63025;55.472;38.432;2023-11-21T14:48:45;10.85;;;5.57;;
74551;SDS011;63025;55.472;38.432;2023-11-21T14:51:29;9.20;;;4.63;;
74551;SDS011;63025;55.472;38.432;2023-11-21T14:54:12;10.82;;;5.43;;
74551;SDS011;63025;55.472;38.432;2023-11-21T14:56:37;12.85;;;6.63;;
74551;SDS011;63025;55.472;38.432;2023-11-21T14:59:04;8.52;;;4.90;;
74551;SDS011;63025;55.472;38.432;2023-11-21T15:01:38;12.05;;;6.38;;